createdAt,value
2023-05-03T00:00:54.268Z,100434.55
2023-05-03T00:03:26.060Z,100432.50
2023-05-03T00:05:57.725Z,100432.66
2023-05-03T00:08:29.496Z,100433.52
2023-05-03T00:11:03.394Z,100435.79
2023-05-03T00:13:35.488Z,100437.62
2023-05-03T00:16:08.157Z,100438.09
2023-05-03T00:18:39.867Z,100431.89
2023-05-03T00:21:11.623Z,100432.46
2023-05-03T00:23:43.259Z,100433.62
2023-05-03T00:26:14.997Z,100436.02
2023-05-03T00:28:45.446Z,100431.55
2023-05-03T00:31:17.175Z,100430.41
2023-05-03T00:33:49.114Z,100432.98
2023-05-03T00:36:20.790Z,100427.50
2023-05-03T00:38:52.969Z,100430.88
2023-05-03T00:41:24.876Z,100430.48
2023-05-03T00:43:55.394Z,100429.41
2023-05-03T00:46:27.372Z,100432.25
2023-05-03T00:48:59.232Z,100428.57
2023-05-03T00:51:30.962Z,100428.30
2023-05-03T00:54:02.764Z,100431.92
2023-05-03T00:56:47.859Z,100430.57
2023-05-03T00:59:22.800Z,100437.84
2023-05-03T01:01:55.060Z,100438.37
2023-05-03T01:04:26.973Z,100434.63
2023-05-03T01:07:06.604Z,100438.81
2023-05-03T01:09:50.250Z,100439.27
2023-05-03T01:12:31.791Z,100441.67
2023-05-03T01:15:11.700Z,100444.21
2023-05-03T01:17:51.144Z,100448.20
2023-05-03T01:20:26.389Z,100450.74
2023-05-03T01:23:07.071Z,100451.19
2023-05-03T01:25:38.884Z,100448.59
2023-05-03T01:28:09.367Z,100453.23
2023-05-03T01:30:43.379Z,100456.36
2023-05-03T01:33:23.082Z,100456.60
2023-05-03T01:36:06.040Z,100463.07
2023-05-03T01:38:39.235Z,100463.10
2023-05-03T01:41:13.436Z,100469.88
2023-05-03T01:43:47.033Z,100472.60
2023-05-03T01:46:19.428Z,100475.52
2023-05-03T01:48:51.198Z,100476.41
2023-05-03T01:51:22.915Z,100478.02
2023-05-03T01:53:55.324Z,100479.02
2023-05-03T01:56:26.370Z,100484.58
2023-05-03T01:58:58.726Z,100482.20
2023-05-03T02:01:30.856Z,100481.10
2023-05-03T02:04:02.822Z,100477.27
2023-05-03T02:06:34.554Z,100479.76
2023-05-03T02:09:06.485Z,100483.89
2023-05-03T02:11:38.336Z,100485.32
2023-05-03T02:14:10.007Z,100484.08
2023-05-03T02:16:41.879Z,100485.72
2023-05-03T02:19:13.738Z,100487.08
2023-05-03T02:21:45.464Z,100488.61
2023-05-03T02:24:17.711Z,100487.73
2023-05-03T02:26:49.418Z,100489.34
2023-05-03T02:29:21.178Z,100494.10
2023-05-03T02:31:53.156Z,100494.70
2023-05-03T02:34:24.973Z,100497.52
2023-05-03T02:36:56.819Z,100501.14
2023-05-03T02:39:29.239Z,100500.27
2023-05-03T02:42:02.538Z,100502.48
2023-05-03T02:44:34.353Z,100507.51
2023-05-03T02:47:06.179Z,100509.48
2023-05-03T02:49:37.917Z,100513.15
2023-05-03T02:52:09.659Z,100511.80
2023-05-03T02:54:41.384Z,100515.12
2023-05-03T02:57:14.010Z,100515.18
2023-05-03T02:59:44.296Z,100519.65
2023-05-03T03:02:16.010Z,100523.23
2023-05-03T03:04:47.953Z,100525.04
2023-05-03T03:07:19.689Z,100527.40
2023-05-03T03:09:51.678Z,100530.25
2023-05-03T03:12:23.524Z,100536.48
2023-05-03T03:14:55.151Z,100538.20
2023-05-03T03:17:26.932Z,100538.13
2023-05-03T03:19:59.401Z,100541.65
2023-05-03T03:22:31.196Z,100540.92
2023-05-03T03:25:02.943Z,100546.98
2023-05-03T03:27:35.258Z,100545.06
2023-05-03T03:30:10.518Z,100544.71
2023-05-03T03:32:45.411Z,100547.73
2023-05-03T03:35:18.002Z,100548.02
2023-05-03T03:37:49.954Z,100549.77
2023-05-03T03:40:22.685Z,100548.41
2023-05-03T03:42:56.051Z,100551.80
2023-05-03T03:45:27.884Z,100553.01
2023-05-03T03:47:59.001Z,100557.22
2023-05-03T03:50:31.854Z,100558.59
2023-05-03T03:53:03.642Z,100557.95
2023-05-03T03:55:34.222Z,100569.08
2023-05-03T03:58:08.079Z,100568.12
2023-05-03T04:00:40.379Z,100571.55
2023-05-03T04:03:15.578Z,100574.62
2023-05-03T04:05:46.025Z,100580.30
2023-05-03T04:08:18.760Z,100587.39
2023-05-03T04:10:50.604Z,100590.23
2023-05-03T04:13:22.811Z,100593.08
2023-05-03T04:15:58.050Z,100591.98
2023-05-03T04:18:30.281Z,100597.65
2023-05-03T04:21:02.433Z,100597.59
2023-05-03T04:23:34.758Z,100599.35
2023-05-03T04:26:07.530Z,100602.06
2023-05-03T04:28:42.402Z,100604.25
2023-05-03T04:31:16.789Z,100606.92
2023-05-03T04:33:48.909Z,100609.94
2023-05-03T04:36:19.347Z,100612.69
2023-05-03T04:38:52.046Z,100616.88
2023-05-03T04:41:22.902Z,100617.81
2023-05-03T04:43:56.079Z,100611.56
2023-05-03T04:46:28.174Z,100613.40
2023-05-03T04:49:00.469Z,100612.93
2023-05-03T04:51:32.381Z,100614.19
2023-05-03T04:54:04.297Z,100621.98
2023-05-03T04:56:36.217Z,100623.41
2023-05-03T04:59:14.660Z,100623.48
2023-05-03T05:01:47.054Z,100626.86
2023-05-03T05:04:19.461Z,100627.16
2023-05-03T05:06:55.273Z,100627.30
2023-05-03T05:09:31.915Z,100633.41
2023-05-03T05:12:05.391Z,100637.23
2023-05-03T05:14:43.801Z,100643.45
2023-05-03T05:17:15.495Z,100644.46
2023-05-03T05:19:46.160Z,100644.88
2023-05-03T05:22:19.795Z,100650.70
2023-05-03T05:24:55.139Z,100652.21
2023-05-03T05:27:34.003Z,100653.59
2023-05-03T05:30:18.356Z,100655.49
2023-05-03T05:33:04.290Z,100653.80
2023-05-03T05:35:38.310Z,100658.06
2023-05-03T05:38:10.130Z,100658.26
2023-05-03T05:40:45.720Z,100660.14
2023-05-03T05:43:17.593Z,100662.52
2023-05-03T05:45:50.413Z,100664.35
2023-05-03T05:48:29.028Z,100661.73
2023-05-03T05:51:00.926Z,100665.54
2023-05-03T05:53:35.104Z,100665.27
2023-05-03T05:56:08.994Z,100674.10
2023-05-03T05:58:44.123Z,100675.59
2023-05-03T06:01:15.977Z,100678.73
2023-05-03T06:03:49.923Z,100685.10
2023-05-03T06:06:27.509Z,100687.63
2023-05-03T06:09:01.272Z,100688.27
2023-05-03T06:11:43.306Z,100693.85
2023-05-03T06:14:20.854Z,100692.63
2023-05-03T06:16:56.261Z,100700.19
2023-05-03T06:19:28.898Z,100695.15
2023-05-03T06:22:02.831Z,100690.70
2023-05-03T06:24:43.880Z,100694.77
2023-05-03T06:27:18.754Z,100701.17
2023-05-03T06:30:04.294Z,100702.73
2023-05-03T06:32:42.293Z,100705.19
2023-05-03T06:35:32.597Z,100704.33
2023-05-03T06:38:04.525Z,100706.66
2023-05-03T06:40:35.982Z,100703.89
2023-05-03T06:43:09.803Z,100703.76
2023-05-03T06:45:49.252Z,100703.93
2023-05-03T06:48:20.417Z,100701.90
2023-05-03T06:50:55.637Z,100699.42
2023-05-03T06:53:27.465Z,100701.10
2023-05-03T06:55:57.926Z,100705.48
2023-05-03T06:58:32.084Z,100711.89
2023-05-03T07:01:04.679Z,100710.83
2023-05-03T07:03:37.446Z,100709.84
2023-05-03T07:06:13.521Z,100712.99
2023-05-03T07:08:45.544Z,100719.06
2023-05-03T07:11:17.665Z,100715.30
2023-05-03T07:13:49.437Z,100719.21
2023-05-03T07:16:23.028Z,100715.67
2023-05-03T07:18:54.881Z,100724.69
2023-05-03T07:21:28.256Z,100721.14
2023-05-03T07:24:00.155Z,100718.14
2023-05-03T07:26:30.515Z,100722.16
2023-05-03T07:29:02.400Z,100721.56
2023-05-03T07:31:37.189Z,100721.89
2023-05-03T07:34:12.870Z,100720.69
2023-05-03T07:36:45.130Z,100724.12
2023-05-03T07:39:17.508Z,100721.62
2023-05-03T07:41:49.509Z,100721.56
2023-05-03T07:44:22.434Z,100723.50
2023-05-03T07:46:54.212Z,100725.20
2023-05-03T07:49:26.146Z,100723.61
2023-05-03T07:51:57.300Z,100720.96
2023-05-03T07:54:29.337Z,100725.35
2023-05-03T07:57:02.061Z,100723.95
2023-05-03T07:59:34.202Z,100723.58
2023-05-03T08:02:06.329Z,100723.83
2023-05-03T08:04:38.646Z,100719.40
2023-05-03T08:07:10.885Z,100722.33
2023-05-03T08:09:46.702Z,100723.53
2023-05-03T08:12:18.711Z,100717.98
2023-05-03T08:14:50.675Z,100713.33
2023-05-03T08:17:23.266Z,100712.38
2023-05-03T08:19:57.745Z,100711.63
2023-05-03T08:22:30.494Z,100717.62
2023-05-03T08:25:04.652Z,100719.88
2023-05-03T08:27:39.055Z,100717.45
2023-05-03T08:30:12.366Z,100719.13
2023-05-03T08:32:44.361Z,100716.44
2023-05-03T08:35:17.253Z,100720.23
2023-05-03T08:37:49.577Z,100717.60
2023-05-03T08:40:24.076Z,100718.73
2023-05-03T08:42:57.770Z,100724.82
2023-05-03T08:45:33.876Z,100722.13
2023-05-03T08:48:07.688Z,100723.34
2023-05-03T08:50:42.477Z,100724.92
2023-05-03T08:53:16.605Z,100727.09
2023-05-03T08:55:51.093Z,100731.20
2023-05-03T08:58:23.232Z,100736.23
2023-05-03T09:00:55.948Z,100737.19
2023-05-03T09:03:27.684Z,100739.80
2023-05-03T09:06:02.107Z,100738.49
2023-05-03T09:08:43.389Z,100738.34
2023-05-03T09:11:23.531Z,100740.25
2023-05-03T09:13:55.392Z,100740.73
2023-05-03T09:16:27.539Z,100742.67
2023-05-03T09:19:05.001Z,100740.32
2023-05-03T09:21:37.018Z,100744.83
2023-05-03T09:24:16.937Z,100744.69
2023-05-03T09:26:50.559Z,100748.92
2023-05-03T09:29:32.031Z,100749.42
2023-05-03T09:32:05.716Z,100744.72
2023-05-03T09:34:38.246Z,100746.08
2023-05-03T09:37:10.534Z,100746.16
2023-05-03T09:39:44.030Z,100744.46
2023-05-03T09:42:17.636Z,100744.48
2023-05-03T09:44:51.704Z,100745.44
2023-05-03T09:47:25.481Z,100746.56
2023-05-03T09:49:57.512Z,100746.24
2023-05-03T09:52:30.254Z,100743.31
2023-05-03T09:55:02.381Z,100744.52
2023-05-03T09:57:38.057Z,100748.17
2023-05-03T10:00:13.824Z,100744.86
2023-05-03T10:02:47.612Z,100746.93
2023-05-03T10:05:22.578Z,100746.85
2023-05-03T10:07:57.731Z,100743.71
2023-05-03T10:10:33.643Z,100745.25
2023-05-03T10:13:06.652Z,100746.54
2023-05-03T10:15:42.169Z,100748.79
2023-05-03T10:18:22.893Z,100744.67
2023-05-03T10:20:59.439Z,100740.92
2023-05-03T10:23:31.302Z,100738.42
2023-05-03T10:26:15.198Z,100737.80
2023-05-03T10:28:47.032Z,100738.31
2023-05-03T10:31:48.049Z,100738.09
2023-05-03T10:34:24.499Z,100740.73
2023-05-03T10:36:56.880Z,100735.61
2023-05-03T10:39:30.197Z,100736.54
2023-05-03T10:42:04.260Z,100732.69
2023-05-03T10:44:52.030Z,100731.51
2023-05-03T10:47:27.325Z,100734.61
2023-05-03T10:50:28.065Z,100731.89
2023-05-03T10:53:00.819Z,100727.68
2023-05-03T10:55:33.447Z,100728.07
2023-05-03T10:58:13.062Z,100721.55
2023-05-03T11:00:46.064Z,100721.34
2023-05-03T11:03:35.655Z,100718.52
2023-05-03T11:06:09.556Z,100723.49
2023-05-03T11:08:50.633Z,100721.67
2023-05-03T11:11:23.422Z,100722.12
2023-05-03T11:13:56.202Z,100724.77
2023-05-03T11:16:33.263Z,100726.87
2023-05-03T11:19:06.696Z,100732.08
2023-05-03T11:21:40.088Z,100728.44
2023-05-03T11:24:12.420Z,100722.78
2023-05-03T11:26:46.106Z,100723.79
2023-05-03T11:29:21.047Z,100724.27
2023-05-03T11:31:54.467Z,100717.95
2023-05-03T11:34:28.591Z,100715.95
2023-05-03T11:37:01.795Z,100718.85
2023-05-03T11:39:37.153Z,100721.34
2023-05-03T11:42:09.330Z,100720.91
2023-05-03T11:44:41.365Z,100719.48
2023-05-03T11:47:15.903Z,100713.33
2023-05-03T11:49:56.904Z,100708.91
2023-05-03T11:52:30.515Z,100704.55
2023-05-03T11:55:05.545Z,100710.42
2023-05-03T11:57:42.666Z,100712.81
2023-05-03T12:00:17.311Z,100713.86
2023-05-03T12:02:50.776Z,100714.85
2023-05-03T12:05:25.026Z,100710.95
2023-05-03T12:07:58.197Z,100709.41
2023-05-03T12:10:35.646Z,100710.30
2023-05-03T12:13:08.948Z,100707.39
2023-05-03T12:15:50.570Z,100708.09
2023-05-03T12:18:28.489Z,100710.79
2023-05-03T12:23:35.794Z,100707.91
2023-05-03T12:26:10.049Z,100708.20
2023-05-03T12:28:42.405Z,100706.92
2023-05-03T12:31:17.572Z,100707.38
2023-05-03T12:34:16.534Z,100704.91
2023-05-03T12:36:43.410Z,100698.42
2023-05-03T12:39:16.492Z,100697.96
2023-05-03T12:44:24.235Z,100696.56
2023-05-03T12:47:00.719Z,100693.47
2023-05-03T12:49:37.876Z,100686.19
2023-05-03T12:52:36.616Z,100688.23
2023-05-03T12:55:04.187Z,100681.24
2023-05-03T12:57:37.988Z,100679.55
2023-05-03T13:00:15.135Z,100677.99
2023-05-03T13:05:33.674Z,100670.73
2023-05-03T13:08:28.954Z,100669.93
2023-05-03T13:11:05.741Z,100669.80
2023-05-03T13:13:37.869Z,100664.05
2023-05-03T13:16:11.638Z,100662.28
2023-05-03T13:18:45.513Z,100663.83
2023-05-03T13:21:18.072Z,100659.72
2023-05-03T13:23:53.472Z,100657.52
2023-05-03T13:26:25.517Z,100656.48
2023-05-03T13:28:58.255Z,100651.60
2023-05-03T13:31:30.951Z,100652.17
2023-05-03T13:34:02.774Z,100647.77
2023-05-03T13:36:33.537Z,100649.81
2023-05-03T13:39:07.000Z,100648.42
2023-05-03T13:41:40.553Z,100642.81
2023-05-03T13:44:12.647Z,100639.15
2023-05-03T13:46:44.966Z,100641.31
2023-05-03T13:49:16.987Z,100640.25
2023-05-03T13:51:48.810Z,100637.48
2023-05-03T13:54:19.318Z,100637.16
2023-05-03T13:56:51.842Z,100636.29
2023-05-03T13:59:24.504Z,100634.45
2023-05-03T14:01:56.740Z,100631.58
2023-05-03T14:04:29.356Z,100627.40
2023-05-03T14:07:03.582Z,100623.83
2023-05-03T14:09:39.572Z,100626.51
2023-05-03T14:12:11.600Z,100623.73
2023-05-03T14:14:45.964Z,100622.79
2023-05-03T14:17:18.349Z,100625.33
2023-05-03T14:19:50.809Z,100626.23
2023-05-03T14:22:22.746Z,100624.24
2023-05-03T14:24:53.242Z,100627.73
2023-05-03T14:27:25.343Z,100628.95
2023-05-03T14:29:58.104Z,100628.77
2023-05-03T14:32:30.775Z,100628.72
2023-05-03T14:35:02.765Z,100624.05
2023-05-03T14:37:35.675Z,100625.80
2023-05-03T14:40:13.091Z,100621.66
2023-05-03T14:42:45.144Z,100619.59
2023-05-03T14:45:17.107Z,100620.16
2023-05-03T14:47:47.636Z,100623.71
2023-05-03T14:50:21.668Z,100623.05
2023-05-03T14:52:54.004Z,100624.96
2023-05-03T14:55:25.732Z,100622.16
2023-05-03T14:57:59.300Z,100625.83
2023-05-03T15:00:31.215Z,100624.69
2023-05-03T15:03:03.235Z,100626.19
2023-05-03T15:05:42.947Z,100626.23
2023-05-03T15:08:17.689Z,100626.81
2023-05-03T15:10:50.134Z,100629.09
2023-05-03T15:13:22.422Z,100629.69
2023-05-03T15:15:54.566Z,100631.68
2023-05-03T15:18:27.593Z,100631.41
2023-05-03T15:20:59.810Z,100628.27
2023-05-03T15:23:31.807Z,100620.88
2023-05-03T15:26:04.105Z,100625.77
2023-05-03T15:28:36.129Z,100624.98
2023-05-03T15:31:08.152Z,100622.55
2023-05-03T15:33:43.381Z,100622.70
2023-05-03T15:36:16.734Z,100624.42
2023-05-03T15:38:50.452Z,100624.38
2023-05-03T15:41:22.350Z,100622.80
2023-05-03T15:43:52.702Z,100629.12
2023-05-03T15:46:25.551Z,100625.91
2023-05-03T15:48:58.648Z,100628.07
2023-05-03T15:51:31.615Z,100629.21
2023-05-03T15:54:03.885Z,100626.09
2023-05-03T15:56:37.856Z,100630.20
2023-05-03T15:59:10.192Z,100633.60
2023-05-03T16:01:42.267Z,100637.79
2023-05-03T16:04:14.654Z,100641.13
2023-05-03T16:06:46.422Z,100637.55
2023-05-03T16:09:19.066Z,100636.54
2023-05-03T16:11:51.371Z,100638.02
2023-05-03T16:14:24.855Z,100640.02
2023-05-03T16:16:57.063Z,100638.44
2023-05-03T16:19:29.105Z,100636.19
2023-05-03T16:22:02.040Z,100629.20
2023-05-03T16:24:35.002Z,100634.27
2023-05-03T16:27:07.517Z,100632.55
2023-05-03T16:29:41.809Z,100630.82
2023-05-03T16:32:13.637Z,100631.41
2023-05-03T16:34:46.195Z,100636.06
2023-05-03T16:37:19.266Z,100633.67
2023-05-03T16:39:51.296Z,100626.59
2023-05-03T16:42:22.340Z,100629.98
2023-05-03T16:44:54.152Z,100631.95
2023-05-03T16:47:26.127Z,100630.16
2023-05-03T16:49:57.853Z,100628.02
2023-05-03T16:52:29.694Z,100628.19
2023-05-03T16:55:01.561Z,100628.24
2023-05-03T16:57:33.590Z,100629.50
2023-05-03T17:00:09.341Z,100629.52
2023-05-03T17:02:42.184Z,100631.36
2023-05-03T17:05:14.920Z,100627.83
2023-05-03T17:07:47.924Z,100627.42
2023-05-03T17:10:20.530Z,100627.17
2023-05-03T17:12:52.628Z,100630.03
2023-05-03T17:15:24.990Z,100628.14
2023-05-03T17:17:57.081Z,100631.67
2023-05-03T17:20:29.297Z,100631.20
2023-05-03T17:23:02.257Z,100631.95
2023-05-03T17:25:35.751Z,100632.13
2023-05-03T17:28:08.562Z,100635.63
2023-05-03T17:30:40.880Z,100635.41
2023-05-03T17:33:15.778Z,100637.51
2023-05-03T17:35:52.296Z,100643.29
2023-05-03T17:38:27.834Z,100643.17
2023-05-03T17:41:06.466Z,100643.80
2023-05-03T17:43:39.492Z,100644.67
2023-05-03T17:46:14.566Z,100647.57
2023-05-03T17:48:48.819Z,100649.16
2023-05-03T17:51:27.675Z,100646.45
2023-05-03T17:54:00.137Z,100640.66
2023-05-03T17:56:32.658Z,100644.99
2023-05-03T17:59:04.546Z,100648.07
2023-05-03T18:01:39.582Z,100647.63
2023-05-03T18:04:11.645Z,100649.81
2023-05-03T18:06:44.506Z,100652.16
2023-05-03T18:09:16.394Z,100650.27
2023-05-03T18:11:49.079Z,100654.95
2023-05-03T18:14:21.093Z,100658.98
2023-05-03T18:16:55.262Z,100656.14
2023-05-03T18:19:27.269Z,100660.28
2023-05-03T18:22:01.215Z,100665.42
2023-05-03T18:24:34.211Z,100670.34
2023-05-03T18:27:04.741Z,100670.87
2023-05-03T18:29:41.510Z,100667.91
2023-05-03T18:32:13.391Z,100673.89
2023-05-03T18:34:45.742Z,100674.13
2023-05-03T18:37:24.625Z,100673.95
2023-05-03T18:40:04.801Z,100678.81
2023-05-03T18:42:46.436Z,100683.58
2023-05-03T18:45:20.642Z,100686.23
2023-05-03T18:47:54.171Z,100685.07
2023-05-03T18:50:24.578Z,100685.30
2023-05-03T18:53:00.749Z,100683.83
2023-05-03T18:55:36.786Z,100683.77
2023-05-03T18:58:30.237Z,100684.26
2023-05-03T19:01:12.328Z,100684.59
2023-05-03T19:03:45.538Z,100686.84
2023-05-03T19:06:24.718Z,100685.79
2023-05-03T19:09:05.554Z,100688.77
2023-05-03T19:11:44.725Z,100685.80
2023-05-03T19:14:16.695Z,100687.16
2023-05-03T19:16:48.641Z,100689.16
2023-05-03T19:19:33.057Z,100689.70
2023-05-03T19:22:21.433Z,100693.52
2023-05-03T19:24:53.620Z,100694.52
2023-05-03T19:27:30.797Z,100695.09
2023-05-03T19:30:08.166Z,100692.48
2023-05-03T19:32:40.010Z,100689.65
2023-05-03T19:35:16.203Z,100692.89
2023-05-03T19:37:57.294Z,100691.40
2023-05-03T19:40:31.523Z,100691.05
2023-05-03T19:43:04.897Z,100696.41
2023-05-03T19:45:44.166Z,100696.73
2023-05-03T19:48:28.200Z,100697.48
2023-05-03T19:51:01.332Z,100704.70
2023-05-03T19:53:33.816Z,100707.62
2023-05-03T19:56:07.142Z,100707.83
2023-05-03T19:58:39.055Z,100703.92
2023-05-03T20:01:10.832Z,100703.41
2023-05-03T20:03:43.369Z,100705.02
2023-05-03T20:06:15.312Z,100702.39
2023-05-03T20:08:47.264Z,100700.73
2023-05-03T20:11:19.472Z,100699.45
2023-05-03T20:13:49.823Z,100695.97
2023-05-03T20:16:22.015Z,100696.77
2023-05-03T20:18:53.900Z,100694.98
2023-05-03T20:21:25.718Z,100695.45
2023-05-03T20:23:57.938Z,100691.39
2023-05-03T20:26:29.741Z,100688.54
2023-05-03T20:29:01.526Z,100688.48
2023-05-03T20:31:33.529Z,100692.63
2023-05-03T20:34:05.286Z,100689.02
2023-05-03T20:36:37.514Z,100688.45
2023-05-03T20:39:08.486Z,100691.52
2023-05-03T20:41:40.355Z,100693.32
2023-05-03T20:44:12.178Z,100688.42
2023-05-03T20:46:45.484Z,100688.90
2023-05-03T20:49:17.348Z,100693.14
2023-05-03T20:51:50.555Z,100693.24
2023-05-03T20:54:27.942Z,100693.54
2023-05-03T20:56:59.736Z,100696.91
2023-05-03T20:59:31.507Z,100692.62
2023-05-03T21:02:03.367Z,100693.92
2023-05-03T21:04:35.188Z,100697.39
2023-05-03T21:07:07.082Z,100701.09
2023-05-03T21:09:39.178Z,100705.80
2023-05-03T21:12:09.750Z,100702.47
2023-05-03T21:14:41.414Z,100701.80
2023-05-03T21:17:13.835Z,100701.40
2023-05-03T21:19:50.965Z,100699.41
2023-05-03T21:22:22.887Z,100699.40
2023-05-03T21:24:57.640Z,100696.02
2023-05-03T21:27:29.596Z,100695.02
2023-05-03T21:30:01.977Z,100694.77
2023-05-03T21:32:34.924Z,100695.98
2023-05-03T21:35:09.248Z,100697.63
2023-05-03T21:37:41.269Z,100695.67
2023-05-03T21:40:15.099Z,100697.35
2023-05-03T21:42:47.266Z,100700.09
2023-05-03T21:45:17.730Z,100701.63
2023-05-03T21:47:49.690Z,100706.94
2023-05-03T21:50:23.610Z,100705.27
2023-05-03T21:52:55.519Z,100704.21
2023-05-03T21:55:29.650Z,100706.81
2023-05-03T21:58:01.748Z,100707.92
2023-05-03T22:00:36.036Z,100706.61
2023-05-03T22:03:08.235Z,100700.13
2023-05-03T22:05:43.193Z,100701.68
2023-05-03T22:08:18.092Z,100701.67
2023-05-03T22:10:50.289Z,100696.95
2023-05-03T22:13:22.349Z,100697.04
2023-05-03T22:15:54.181Z,100700.26
2023-05-03T22:18:28.223Z,100699.67
2023-05-03T22:21:00.407Z,100695.66
2023-05-03T22:23:33.041Z,100696.95
2023-05-03T22:26:04.934Z,100700.80
2023-05-03T22:28:36.758Z,100697.55
2023-05-03T22:31:08.516Z,100697.73
2023-05-03T22:33:40.337Z,100700.46
2023-05-03T22:36:14.525Z,100700.86
2023-05-03T22:38:46.456Z,100702.13
2023-05-03T22:41:18.165Z,100698.88
2023-05-03T22:43:50.039Z,100700.23
2023-05-03T22:46:22.044Z,100697.33
2023-05-03T22:48:52.780Z,100696.77
2023-05-03T22:51:24.922Z,100694.04
2023-05-03T22:53:55.412Z,100697.21
2023-05-03T22:56:28.474Z,100699.23
2023-05-03T22:59:00.275Z,100702.01
2023-05-03T23:01:32.233Z,100701.38
2023-05-03T23:04:04.224Z,100699.75
2023-05-03T23:06:36.426Z,100694.44
2023-05-03T23:09:07.115Z,100695.64
2023-05-03T23:11:38.924Z,100693.59
2023-05-03T23:14:10.750Z,100691.70
2023-05-03T23:16:42.482Z,100689.34
2023-05-03T23:19:14.438Z,100690.05
2023-05-03T23:21:46.191Z,100690.77
2023-05-03T23:24:18.850Z,100688.23
2023-05-03T23:26:50.828Z,100684.49
2023-05-03T23:29:23.216Z,100683.54
2023-05-03T23:31:55.474Z,100680.33
2023-05-03T23:34:27.715Z,100681.86
2023-05-03T23:36:59.523Z,100680.58
2023-05-03T23:39:31.426Z,100680.91
2023-05-03T23:42:03.180Z,100676.39
2023-05-03T23:44:53.064Z,100675.31
2023-05-03T23:47:26.843Z,100671.77
2023-05-03T23:49:58.699Z,100674.77
2023-05-03T23:52:30.506Z,100670.78
2023-05-03T23:55:02.496Z,100671.33
2023-05-03T23:57:34.525Z,100672.89
